sensor_id;sensor_type;location;lat;lon;timestamp;noise_LAeq;noise_LA_min;noise_LA_max;noise_LA01;noise_LA95
43787;Laerm;29409;49.306;8.500;2023-05-10T00:00:28;39.18;36.20;44.94;;
43787;Laerm;29409;49.306;8.500;2023-05-10T00:01:29;39.24;36.45;42.29;;
43787;Laerm;29409;49.306;8.500;2023-05-10T00:02:29;39.53;36.91;48.08;;
43787;Laerm;29409;49.306;8.500;2023-05-10T00:03:30;39.65;36.69;42.41;;
43787;Laerm;29409;49.306;8.500;2023-05-10T00:04:31;39.49;36.45;49.06;;
43787;Laerm;29409;49.306;8.500;2023-05-10T00:05:31;39.37;36.45;46.82;;
43787;Laerm;29409;49.306;8.500;2023-05-10T00:06:31;39.86;36.91;48.78;;
43787;Laerm;29409;49.306;8.500;2023-05-10T00:07:33;40.18;37.12;43.77;;
43787;Laerm;29409;49.306;8.500;2023-05-10T00:08:34;39.63;36.91;47.35;;
43787;Laerm;29409;49.306;8.500;2023-05-10T00:09:34;39.52;36.69;42.41;;
43787;Laerm;29409;49.306;8.500;2023-05-10T00:10:34;39.62;36.91;50.97;;
43787;Laerm;29409;49.306;8.500;2023-05-10T00:11:35;39.36;36.20;46.15;;
43787;Laerm;29409;49.306;8.500;2023-05-10T00:12:35;39.34;35.94;47.34;;
43787;Laerm;29409;49.306;8.500;2023-05-10T00:13:36;39.24;35.66;42.88;;
43787;Laerm;29409;49.306;8.500;2023-05-10T00:14:36;39.29;35.94;47.00;;
43787;Laerm;29409;49.306;8.500;2023-05-10T00:15:37;39.33;35.36;49.59;;
43787;Laerm;29409;49.306;8.500;2023-05-10T00:16:37;39.50;36.45;41.96;;
43787;Laerm;29409;49.306;8.500;2023-05-10T00:17:37;39.41;36.20;45.86;;
43787;Laerm;29409;49.306;8.500;2023-05-10T00:18:38;39.32;36.20;49.21;;
43787;Laerm;29409;49.306;8.500;2023-05-10T00:19:38;40.90;36.45;67.71;;
43787;Laerm;29409;49.306;8.500;2023-05-10T00:20:38;40.41;36.45;48.60;;
43787;Laerm;29409;49.306;8.500;2023-05-10T00:21:38;39.27;36.20;42.53;;
43787;Laerm;29409;49.306;8.500;2023-05-10T00:22:39;39.24;35.66;51.02;;
43787;Laerm;29409;49.306;8.500;2023-05-10T00:23:39;39.18;36.45;42.71;;
43787;Laerm;29409;49.306;8.500;2023-05-10T00:24:39;39.16;35.66;44.51;;
43787;Laerm;29409;49.306;8.500;2023-05-10T00:25:40;39.22;35.94;41.82;;
43787;Laerm;29409;49.306;8.500;2023-05-10T00:26:40;39.37;35.66;41.96;;
43787;Laerm;29409;49.306;8.500;2023-05-10T00:27:42;39.40;36.20;45.23;;
43787;Laerm;29409;49.306;8.500;2023-05-10T00:28:42;39.27;35.66;48.21;;
43787;Laerm;29409;49.306;8.500;2023-05-10T00:29:42;39.41;35.04;41.89;;
43787;Laerm;29409;49.306;8.500;2023-05-10T00:30:43;39.30;35.36;42.35;;
43787;Laerm;29409;49.306;8.500;2023-05-10T00:31:43;39.40;35.94;41.75;;
43787;Laerm;29409;49.306;8.500;2023-05-10T00:32:43;39.27;35.94;43.09;;
43787;Laerm;29409;49.306;8.500;2023-05-10T00:33:44;39.23;36.20;43.09;;
43787;Laerm;29409;49.306;8.500;2023-05-10T00:34:44;39.38;35.66;42.22;;
43787;Laerm;29409;49.306;8.500;2023-05-10T00:35:44;39.33;35.94;42.03;;
43787;Laerm;29409;49.306;8.500;2023-05-10T00:36:45;39.51;36.20;42.88;;
43787;Laerm;29409;49.306;8.500;2023-05-10T00:37:45;39.47;36.20;42.93;;
43787;Laerm;29409;49.306;8.500;2023-05-10T00:38:45;39.45;36.45;42.93;;
43787;Laerm;29409;49.306;8.500;2023-05-10T00:39:46;39.55;36.69;41.96;;
43787;Laerm;29409;49.306;8.500;2023-05-10T00:40:46;39.66;35.94;42.59;;
43787;Laerm;29409;49.306;8.500;2023-05-10T00:41:47;39.73;36.45;42.09;;
43787;Laerm;29409;49.306;8.500;2023-05-10T00:42:47;39.76;36.20;42.93;;
43787;Laerm;29409;49.306;8.500;2023-05-10T00:43:47;40.46;35.36;44.39;;
43787;Laerm;29409;49.306;8.500;2023-05-10T00:44:48;42.26;37.12;45.99;;
43787;Laerm;29409;49.306;8.500;2023-05-10T00:45:49;40.12;37.12;42.36;;
43787;Laerm;29409;49.306;8.500;2023-05-10T00:46:50;39.55;36.20;41.96;;
43787;Laerm;29409;49.306;8.500;2023-05-10T00:47:51;39.47;35.36;41.96;;
43787;Laerm;29409;49.306;8.500;2023-05-10T00:48:54;39.40;35.66;41.61;;
43787;Laerm;29409;49.306;8.500;2023-05-10T00:49:55;39.36;36.20;41.89;;
43787;Laerm;29409;49.306;8.500;2023-05-10T00:50:56;39.45;35.66;42.29;;
43787;Laerm;29409;49.306;8.500;2023-05-10T00:51:56;39.58;35.94;43.14;;
43787;Laerm;29409;49.306;8.500;2023-05-10T00:52:57;39.30;35.94;42.29;;
43787;Laerm;29409;49.306;8.500;2023-05-10T00:53:58;39.49;35.66;42.59;;
43787;Laerm;29409;49.306;8.500;2023-05-10T00:54:58;39.41;36.20;42.22;;
43787;Laerm;29409;49.306;8.500;2023-05-10T00:55:58;39.52;36.45;42.03;;
43787;Laerm;29409;49.306;8.500;2023-05-10T00:56:59;39.51;36.20;42.03;;
43787;Laerm;29409;49.306;8.500;2023-05-10T00:57:59;39.66;36.45;42.16;;
43787;Laerm;29409;49.306;8.500;2023-05-10T00:59:00;39.94;36.91;42.71;;
43787;Laerm;29409;49.306;8.500;2023-05-10T01:00:01;40.24;36.45;51.74;;
43787;Laerm;29409;49.306;8.500;2023-05-10T01:01:02;40.20;36.69;56.31;;
43787;Laerm;29409;49.306;8.500;2023-05-10T01:02:02;41.18;37.32;49.35;;
43787;Laerm;29409;49.306;8.500;2023-05-10T01:03:02;40.08;36.45;42.29;;
43787;Laerm;29409;49.306;8.500;2023-05-10T01:04:03;40.50;37.52;43.09;;
43787;Laerm;29409;49.306;8.500;2023-05-10T01:05:04;41.26;37.70;45.45;;
43787;Laerm;29409;49.306;8.500;2023-05-10T01:06:05;40.44;37.32;42.98;;
43787;Laerm;29409;49.306;8.500;2023-05-10T01:07:05;40.31;37.32;42.71;;
43787;Laerm;29409;49.306;8.500;2023-05-10T01:08:06;40.25;36.20;42.74;;
43787;Laerm;29409;49.306;8.500;2023-05-10T01:09:07;40.54;36.77;43.54;;
43787;Laerm;29409;49.306;8.500;2023-05-10T01:10:07;39.85;36.69;42.53;;
43787;Laerm;29409;49.306;8.500;2023-05-10T01:11:08;39.97;36.91;42.59;;
43787;Laerm;29409;49.306;8.500;2023-05-10T01:12:09;40.05;36.91;42.19;;
43787;Laerm;29409;49.306;8.500;2023-05-10T01:13:09;39.94;35.94;44.15;;
43787;Laerm;29409;49.306;8.500;2023-05-10T01:14:10;39.64;36.20;42.47;;
43787;Laerm;29409;49.306;8.500;2023-05-10T01:15:10;39.71;35.66;43.34;;
43787;Laerm;29409;49.306;8.500;2023-05-10T01:16:11;39.73;36.69;42.65;;
43787;Laerm;29409;49.306;8.500;2023-05-10T01:17:11;41.20;36.69;45.33;;
43787;Laerm;29409;49.306;8.500;2023-05-10T01:18:12;39.93;36.69;43.29;;
43787;Laerm;29409;49.306;8.500;2023-05-10T01:19:16;39.68;36.20;42.16;;
43787;Laerm;29409;49.306;8.500;2023-05-10T01:20:17;39.82;36.91;42.59;;
43787;Laerm;29409;49.306;8.500;2023-05-10T01:21:27;39.79;36.69;42.03;;
43787;Laerm;29409;49.306;8.500;2023-05-10T01:33:27;39.55;35.94;44.07;;
43787;Laerm;29409;49.306;8.500;2023-05-10T01:34:34;39.45;35.36;41.68;;
43787;Laerm;29409;49.306;8.500;2023-05-10T01:36:40;39.41;36.10;42.03;;
43787;Laerm;29409;49.306;8.500;2023-05-10T01:37:45;40.00;36.45;44.15;;
43787;Laerm;29409;49.306;8.500;2023-05-10T01:41:12;39.97;36.91;44.19;;
43787;Laerm;29409;49.306;8.500;2023-05-10T01:42:20;39.79;36.20;43.04;;
43787;Laerm;29409;49.306;8.500;2023-05-10T01:43:22;40.72;36.69;48.61;;
43787;Laerm;29409;49.306;8.500;2023-05-10T01:45:31;39.82;36.69;42.29;;
43787;Laerm;29409;49.306;8.500;2023-05-10T01:46:35;39.93;36.69;42.35;;
43787;Laerm;29409;49.306;8.500;2023-05-10T01:48:41;40.97;36.69;43.09;;
43787;Laerm;29409;49.306;8.500;2023-05-10T01:49:50;40.45;36.69;42.82;;
43787;Laerm;29409;49.306;8.500;2023-05-10T01:50:51;40.50;36.91;42.65;;
43787;Laerm;29409;49.306;8.500;2023-05-10T01:51:53;42.09;37.88;43.54;;
43787;Laerm;29409;49.306;8.500;2023-05-10T01:52:57;41.20;37.12;43.63;;
43787;Laerm;29409;49.306;8.500;2023-05-10T01:53:59;41.28;37.52;43.39;;
43787;Laerm;29409;49.306;8.500;2023-05-10T01:55:01;41.04;37.32;43.68;;
43787;Laerm;29409;49.306;8.500;2023-05-10T01:56:02;41.10;37.12;43.81;;
43787;Laerm;29409;49.306;8.500;2023-05-10T01:57:03;40.32;36.91;42.82;;
43787;Laerm;29409;49.306;8.500;2023-05-10T01:58:06;41.18;37.32;43.51;;
43787;Laerm;29409;49.306;8.500;2023-05-10T01:59:11;40.68;36.45;42.88;;
43787;Laerm;29409;49.306;8.500;2023-05-10T02:00:13;40.10;36.91;43.39;;
43787;Laerm;29409;49.306;8.500;2023-05-10T02:01:14;40.40;36.69;42.71;;
43787;Laerm;29409;49.306;8.500;2023-05-10T02:02:15;39.87;36.69;42.16;;
43787;Laerm;29409;49.306;8.500;2023-05-10T02:03:16;39.61;36.69;42.98;;
43787;Laerm;29409;49.306;8.500;2023-05-10T02:04:18;39.42;36.20;41.68;;
43787;Laerm;29409;49.306;8.500;2023-05-10T02:05:19;40.12;36.45;42.76;;
43787;Laerm;29409;49.306;8.500;2023-05-10T02:06:20;39.70;36.45;43.90;;
43787;Laerm;29409;49.306;8.500;2023-05-10T02:07:22;39.66;36.69;42.03;;
43787;Laerm;29409;49.306;8.500;2023-05-10T02:08:23;40.21;36.34;44.27;;
43787;Laerm;29409;49.306;8.500;2023-05-10T02:09:25;39.85;36.69;42.22;;
43787;Laerm;29409;49.306;8.500;2023-05-10T02:10:27;40.32;36.45;63.32;;
43787;Laerm;29409;49.306;8.500;2023-05-10T02:11:28;39.76;36.45;42.16;;
43787;Laerm;29409;49.306;8.500;2023-05-10T02:12:29;39.84;36.91;48.19;;
43787;Laerm;29409;49.306;8.500;2023-05-10T02:13:31;39.91;36.91;42.35;;
43787;Laerm;29409;49.306;8.500;2023-05-10T02:14:34;40.25;37.12;44.03;;
43787;Laerm;29409;49.306;8.500;2023-05-10T02:15:35;39.63;36.34;42.09;;
43787;Laerm;29409;49.306;8.500;2023-05-10T02:16:37;39.71;36.20;41.89;;
43787;Laerm;29409;49.306;8.500;2023-05-10T02:17:38;39.96;36.45;42.16;;
43787;Laerm;29409;49.306;8.500;2023-05-10T02:18:39;39.97;36.45;42.29;;
43787;Laerm;29409;49.306;8.500;2023-05-10T02:19:40;40.18;37.32;42.76;;
43787;Laerm;29409;49.306;8.500;2023-05-10T02:20:42;39.73;37.12;41.82;;
43787;Laerm;29409;49.306;8.500;2023-05-10T02:21:43;39.67;36.20;42.16;;
43787;Laerm;29409;49.306;8.500;2023-05-10T02:22:44;39.65;36.69;41.96;;
43787;Laerm;29409;49.306;8.500;2023-05-10T02:23:48;39.56;36.20;42.16;;
43787;Laerm;29409;49.306;8.500;2023-05-10T02:24:49;39.39;35.66;45.20;;
43787;Laerm;29409;49.306;8.500;2023-05-10T02:25:50;39.45;36.45;41.94;;
43787;Laerm;29409;49.306;8.500;2023-05-10T02:26:52;40.28;36.20;48.58;;
43787;Laerm;29409;49.306;8.500;2023-05-10T02:27:55;39.35;36.45;41.46;;
43787;Laerm;29409;49.306;8.500;2023-05-10T02:28:56;39.42;36.45;41.68;;
43787;Laerm;29409;49.306;8.500;2023-05-10T02:29:57;39.52;36.69;42.16;;
43787;Laerm;29409;49.306;8.500;2023-05-10T02:30:57;39.40;36.20;41.61;;
43787;Laerm;29409;49.306;8.500;2023-05-10T02:31:58;42.93;36.69;58.83;;
43787;Laerm;29409;49.306;8.500;2023-05-10T02:33:00;43.48;36.91;60.46;;
43787;Laerm;29409;49.306;8.500;2023-05-10T02:34:02;39.50;35.66;41.75;;
43787;Laerm;29409;49.306;8.500;2023-05-10T02:35:02;39.43;36.20;42.16;;
43787;Laerm;29409;49.306;8.500;2023-05-10T02:36:03;39.39;36.20;41.46;;
43787;Laerm;29409;49.306;8.500;2023-05-10T02:37:05;39.33;35.36;41.82;;
43787;Laerm;29409;49.306;8.500;2023-05-10T02:38:06;39.57;36.20;41.68;;
43787;Laerm;29409;49.306;8.500;2023-05-10T02:39:07;39.66;36.45;41.68;;
43787;Laerm;29409;49.306;8.500;2023-05-10T02:40:13;39.55;35.04;42.06;;
43787;Laerm;29409;49.306;8.500;2023-05-10T02:41:15;39.61;35.94;41.75;;
43787;Laerm;29409;49.306;8.500;2023-05-10T02:42:19;39.88;37.12;41.68;;
43787;Laerm;29409;49.306;8.500;2023-05-10T02:43:21;39.46;36.45;41.53;;
43787;Laerm;29409;49.306;8.500;2023-05-10T02:44:22;40.09;36.45;44.76;;
43787;Laerm;29409;49.306;8.500;2023-05-10T02:45:24;40.62;34.69;47.90;;
43787;Laerm;29409;49.306;8.500;2023-05-10T02:46:26;39.45;35.94;41.75;;
43787;Laerm;29409;49.306;8.500;2023-05-10T02:47:27;39.91;36.69;43.14;;
43787;Laerm;29409;49.306;8.500;2023-05-10T02:48:27;40.33;36.91;45.39;;
43787;Laerm;29409;49.306;8.500;2023-05-10T02:49:28;39.88;36.91;43.49;;
43787;Laerm;29409;49.306;8.500;2023-05-10T02:50:28;40.04;36.91;43.29;;
43787;Laerm;29409;49.306;8.500;2023-05-10T02:51:31;39.90;36.20;42.24;;
43787;Laerm;29409;49.306;8.500;2023-05-10T02:52:36;40.30;35.94;44.94;;
43787;Laerm;29409;49.306;8.500;2023-05-10T02:53:40;39.94;36.20;41.89;;
43787;Laerm;29409;49.306;8.500;2023-05-10T02:54:41;40.43;36.45;50.85;;
43787;Laerm;29409;49.306;8.500;2023-05-10T02:55:43;44.83;38.67;61.54;;
43787;Laerm;29409;49.306;8.500;2023-05-10T02:56:50;40.62;37.52;43.58;;
43787;Laerm;29409;49.306;8.500;2023-05-10T02:57:53;41.59;37.12;45.77;;
43787;Laerm;29409;49.306;8.500;2023-05-10T02:58:56;39.96;36.91;41.89;;
43787;Laerm;29409;49.306;8.500;2023-05-10T02:59:56;39.75;35.94;41.75;;
43787;Laerm;29409;49.306;8.500;2023-05-10T03:00:57;40.14;36.20;47.90;;
43787;Laerm;29409;49.306;8.500;2023-05-10T03:01:58;40.30;37.52;45.73;;
43787;Laerm;29409;49.306;8.500;2023-05-10T03:02:59;40.98;37.12;48.76;;
43787;Laerm;29409;49.306;8.500;2023-05-10T03:04:00;40.21;37.12;46.80;;
43787;Laerm;29409;49.306;8.500;2023-05-10T03:05:00;41.04;36.77;44.19;;
43787;Laerm;29409;49.306;8.500;2023-05-10T03:06:01;41.34;38.37;45.20;;
43787;Laerm;29409;49.306;8.500;2023-05-10T03:07:01;41.31;38.05;45.14;;
43787;Laerm;29409;49.306;8.500;2023-05-10T03:08:02;41.56;37.88;45.63;;
43787;Laerm;29409;49.306;8.500;2023-05-10T03:09:04;41.61;38.21;47.54;;
43787;Laerm;29409;49.306;8.500;2023-05-10T03:10:04;41.11;37.88;45.27;;
43787;Laerm;29409;49.306;8.500;2023-05-10T03:12:13;41.89;38.02;45.75;;
43787;Laerm;29409;49.306;8.500;2023-05-10T03:15:42;41.43;38.37;45.69;;
43787;Laerm;29409;49.306;8.500;2023-05-10T03:16:52;40.95;37.52;45.17;;
43787;Laerm;29409;49.306;8.500;2023-05-10T03:18:08;40.75;37.70;45.11;;
43787;Laerm;29409;49.306;8.500;2023-05-10T03:19:16;41.79;38.37;51.74;;
43787;Laerm;29409;49.306;8.500;2023-05-10T03:20:38;40.82;37.87;43.93;;
43787;Laerm;29409;49.306;8.500;2023-05-10T03:21:41;46.05;37.88;77.67;;
43787;Laerm;29409;49.306;8.500;2023-05-10T03:22:45;40.78;38.21;48.96;;
43787;Laerm;29409;49.306;8.500;2023-05-10T03:23:48;41.27;38.37;45.45;;
43787;Laerm;29409;49.306;8.500;2023-05-10T03:24:50;40.80;38.05;45.17;;
43787;Laerm;29409;49.306;8.500;2023-05-10T03:25:52;41.16;37.88;44.94;;
43787;Laerm;29409;49.306;8.500;2023-05-10T03:26:53;44.26;39.08;53.63;;
43787;Laerm;29409;49.306;8.500;2023-05-10T03:27:56;41.46;38.81;45.60;;
43787;Laerm;29409;49.306;8.500;2023-05-10T03:28:57;42.27;38.81;50.84;;
43787;Laerm;29409;49.306;8.500;2023-05-10T03:29:58;43.17;38.95;55.30;;
43787;Laerm;29409;49.306;8.500;2023-05-10T03:31:00;43.96;39.34;51.32;;
43787;Laerm;29409;49.306;8.500;2023-05-10T03:32:00;41.84;38.37;48.23;;
43787;Laerm;29409;49.306;8.500;2023-05-10T03:33:06;41.19;37.88;47.26;;
43787;Laerm;29409;49.306;8.500;2023-05-10T03:34:06;41.50;38.67;50.57;;
43787;Laerm;29409;49.306;8.500;2023-05-10T03:35:07;42.26;38.52;51.50;;
43787;Laerm;29409;49.306;8.500;2023-05-10T03:36:08;42.54;38.95;48.02;;
43787;Laerm;29409;49.306;8.500;2023-05-10T03:37:09;41.26;38.95;46.55;;
43787;Laerm;29409;49.306;8.500;2023-05-10T03:38:09;41.55;37.88;45.94;;
43787;Laerm;29409;49.306;8.500;2023-05-10T03:39:09;47.55;40.33;57.72;;
43787;Laerm;29409;49.306;8.500;2023-05-10T03:40:10;43.67;39.58;50.76;;
43787;Laerm;29409;49.306;8.500;2023-05-10T03:41:11;42.49;38.05;52.33;;
43787;Laerm;29409;49.306;8.500;2023-05-10T03:42:11;43.86;39.34;52.52;;
43787;Laerm;29409;49.306;8.500;2023-05-10T03:43:11;42.98;39.21;51.91;;
43787;Laerm;29409;49.306;8.500;2023-05-10T03:44:12;42.38;38.52;51.47;;
43787;Laerm;29409;49.306;8.500;2023-05-10T03:45:12;41.92;38.37;51.29;;
43787;Laerm;29409;49.306;8.500;2023-05-10T03:46:12;43.01;38.67;53.80;;
43787;Laerm;29409;49.306;8.500;2023-05-10T03:47:12;43.39;39.21;50.83;;
43787;Laerm;29409;49.306;8.500;2023-05-10T03:48:13;42.51;38.47;50.92;;
43787;Laerm;29409;49.306;8.500;2023-05-10T03:49:13;41.58;38.05;50.38;;
43787;Laerm;29409;49.306;8.500;2023-05-10T03:50:13;41.96;37.70;49.66;;
43787;Laerm;29409;49.306;8.500;2023-05-10T03:51:14;41.92;38.05;50.48;;
43787;Laerm;29409;49.306;8.500;2023-05-10T03:52:14;41.82;38.52;52.23;;
43787;Laerm;29409;49.306;8.500;2023-05-10T03:53:15;42.29;38.05;51.34;;
43787;Laerm;29409;49.306;8.500;2023-05-10T03:54:15;41.66;38.37;50.92;;
43787;Laerm;29409;49.306;8.500;2023-05-10T03:55:16;41.63;38.67;50.76;;
43787;Laerm;29409;49.306;8.500;2023-05-10T03:56:16;43.82;39.58;52.69;;
43787;Laerm;29409;49.306;8.500;2023-05-10T03:57:18;48.61;38.87;64.44;;
43787;Laerm;29409;49.306;8.500;2023-05-10T03:58:18;42.58;38.37;54.50;;
43787;Laerm;29409;49.306;8.500;2023-05-10T03:59:19;42.83;38.21;56.43;;
43787;Laerm;29409;49.306;8.500;2023-05-10T04:00:20;50.43;38.37;66.40;;
43787;Laerm;29409;49.306;8.500;2023-05-10T04:01:20;44.09;38.37;53.17;;
43787;Laerm;29409;49.306;8.500;2023-05-10T04:02:20;47.07;40.45;57.69;;
43787;Laerm;29409;49.306;8.500;2023-05-10T04:03:20;48.05;39.92;59.17;;
43787;Laerm;29409;49.306;8.500;2023-05-10T04:04:21;45.48;39.46;62.49;;
43787;Laerm;29409;49.306;8.500;2023-05-10T04:05:21;42.52;38.52;53.90;;
43787;Laerm;29409;49.306;8.500;2023-05-10T04:06:22;46.35;39.08;59.51;;
43787;Laerm;29409;49.306;8.500;2023-05-10T04:07:22;47.34;39.58;68.05;;
43787;Laerm;29409;49.306;8.500;2023-05-10T04:08:22;42.34;38.67;56.69;;
43787;Laerm;29409;49.306;8.500;2023-05-10T04:09:23;44.73;39.34;55.58;;
43787;Laerm;29409;49.306;8.500;2023-05-10T04:10:23;42.06;38.47;54.83;;
43787;Laerm;29409;49.306;8.500;2023-05-10T04:11:23;43.54;38.81;53.49;;
43787;Laerm;29409;49.306;8.500;2023-05-10T04:12:24;42.45;39.46;53.74;;
43787;Laerm;29409;49.306;8.500;2023-05-10T04:13:25;45.00;39.34;60.77;;
43787;Laerm;29409;49.306;8.500;2023-05-10T04:14:25;44.11;38.81;56.39;;
43787;Laerm;29409;49.306;8.500;2023-05-10T04:15:25;45.60;39.34;53.96;;
43787;Laerm;29409;49.306;8.500;2023-05-10T04:16:25;44.30;39.21;53.51;;
43787;Laerm;29409;49.306;8.500;2023-05-10T04:17:26;42.00;38.81;49.02;;
43787;Laerm;29409;49.306;8.500;2023-05-10T04:18:26;45.13;39.21;56.55;;
43787;Laerm;29409;49.306;8.500;2023-05-10T04:19:30;48.93;41.22;64.88;;
43787;Laerm;29409;49.306;8.500;2023-05-10T04:20:31;46.50;39.34;59.13;;
43787;Laerm;29409;49.306;8.500;2023-05-10T04:21:32;46.88;40.33;55.41;;
43787;Laerm;29409;49.306;8.500;2023-05-10T04:22:32;43.49;38.95;51.50;;
43787;Laerm;29409;49.306;8.500;2023-05-10T04:23:35;44.19;38.95;52.26;;
43787;Laerm;29409;49.306;8.500;2023-05-10T04:24:35;46.41;39.21;55.85;;
43787;Laerm;29409;49.306;8.500;2023-05-10T04:25:36;45.85;39.08;60.08;;
43787;Laerm;29409;49.306;8.500;2023-05-10T04:26:36;47.87;38.67;61.42;;
43787;Laerm;29409;49.306;8.500;2023-05-10T04:27:36;45.80;39.58;54.82;;
43787;Laerm;29409;49.306;8.500;2023-05-10T04:28:36;46.07;39.70;55.92;;
43787;Laerm;29409;49.306;8.500;2023-05-10T04:29:37;44.92;39.70;56.18;;
43787;Laerm;29409;49.306;8.500;2023-05-10T04:30:38;47.23;39.58;58.07;;
43787;Laerm;29409;49.306;8.500;2023-05-10T04:31:38;46.48;39.35;55.68;;
43787;Laerm;29409;49.306;8.500;2023-05-10T04:32:39;45.92;39.21;59.16;;
43787;Laerm;29409;49.306;8.500;2023-05-10T04:33:39;46.21;39.70;57.05;;
43787;Laerm;29409;49.306;8.500;2023-05-10T04:34:40;43.51;39.70;54.83;;
43787;Laerm;29409;49.306;8.500;2023-05-10T04:35:40;42.58;39.34;53.58;;
43787;Laerm;29409;49.306;8.500;2023-05-10T04:36:40;45.35;39.23;60.58;;
43787;Laerm;29409;49.306;8.500;2023-05-10T04:37:41;46.02;39.92;54.49;;
43787;Laerm;29409;49.306;8.500;2023-05-10T04:38:41;42.94;39.08;53.39;;
43787;Laerm;29409;49.306;8.500;2023-05-10T04:39:42;46.61;40.43;63.20;;
43787;Laerm;29409;49.306;8.500;2023-05-10T04:40:43;47.49;40.71;60.30;;
43787;Laerm;29409;49.306;8.500;2023-05-10T04:41:46;44.31;39.34;56.44;;
43787;Laerm;29409;49.306;8.500;2023-05-10T04:42:46;46.43;40.43;56.91;;
43787;Laerm;29409;49.306;8.500;2023-05-10T04:43:46;45.40;40.03;59.02;;
43787;Laerm;29409;49.306;8.500;2023-05-10T04:44:49;46.56;39.21;56.28;;
43787;Laerm;29409;49.306;8.500;2023-05-10T04:45:49;45.66;38.95;58.08;;
43787;Laerm;29409;49.306;8.500;2023-05-10T04:46:50;46.00;39.34;58.44;;
43787;Laerm;29409;49.306;8.500;2023-05-10T04:47:50;46.18;40.62;52.95;;
43787;Laerm;29409;49.306;8.500;2023-05-10T04:48:51;48.67;39.46;62.31;;
43787;Laerm;29409;49.306;8.500;2023-05-10T04:49:51;43.65;40.03;55.44;;
43787;Laerm;29409;49.306;8.500;2023-05-10T04:50:51;43.34;40.13;53.90;;
43787;Laerm;29409;49.306;8.500;2023-05-10T04:51:51;43.63;39.58;52.41;;
43787;Laerm;29409;49.306;8.500;2023-05-10T04:52:52;44.37;40.23;63.56;;
43787;Laerm;29409;49.306;8.500;2023-05-10T04:53:52;47.90;39.81;60.59;;
43787;Laerm;29409;49.306;8.500;2023-05-10T04:54:52;45.10;39.58;53.59;;
43787;Laerm;29409;49.306;8.500;2023-05-10T04:55:52;43.07;39.46;53.11;;
43787;Laerm;29409;49.306;8.500;2023-05-10T04:56:53;42.56;39.58;51.51;;
43787;Laerm;29409;49.306;8.500;2023-05-10T04:57:53;43.42;39.70;51.44;;
43787;Laerm;29409;49.306;8.500;2023-05-10T04:58:55;43.54;40.13;50.14;;
43787;Laerm;29409;49.306;8.500;2023-05-10T04:59:55;44.51;40.03;56.68;;
43787;Laerm;29409;49.306;8.500;2023-05-10T05:00:55;43.50;39.81;57.65;;
43787;Laerm;29409;49.306;8.500;2023-05-10T05:01:56;43.01;39.58;49.73;;
43787;Laerm;29409;49.306;8.500;2023-05-10T05:02:56;45.74;39.58;57.54;;
43787;Laerm;29409;49.306;8.500;2023-05-10T05:03:56;46.56;40.33;55.92;;
43787;Laerm;29409;49.306;8.500;2023-05-10T05:04:56;47.63;39.58;69.64;;
43787;Laerm;29409;49.306;8.500;2023-05-10T05:05:57;49.81;39.21;66.25;;
43787;Laerm;29409;49.306;8.500;2023-05-10T05:06:58;42.70;40.13;49.63;;
43787;Laerm;29409;49.306;8.500;2023-05-10T05:07:58;47.20;40.13;68.39;;
43787;Laerm;29409;49.306;8.500;2023-05-10T05:08:58;42.74;40.03;50.49;;
43787;Laerm;29409;49.306;8.500;2023-05-10T05:09:59;44.55;39.81;56.02;;
43787;Laerm;29409;49.306;8.500;2023-05-10T05:10:59;43.20;39.58;51.18;;
43787;Laerm;29409;49.306;8.500;2023-05-10T05:11:59;46.65;40.03;55.25;;
43787;Laerm;29409;49.306;8.500;2023-05-10T05:13:00;44.49;40.98;56.20;;
43787;Laerm;29409;49.306;8.500;2023-05-10T05:14:00;44.88;40.43;53.63;;
43787;Laerm;29409;49.306;8.500;2023-05-10T05:15:01;43.38;39.70;54.35;;
43787;Laerm;29409;49.306;8.500;2023-05-10T05:16:02;42.53;39.21;47.50;;
43787;Laerm;29409;49.306;8.500;2023-05-10T05:17:02;43.88;40.23;49.57;;
43787;Laerm;29409;49.306;8.500;2023-05-10T05:18:03;46.08;39.81;58.50;;
43787;Laerm;29409;49.306;8.500;2023-05-10T05:19:04;48.14;40.43;65.26;;
43787;Laerm;29409;49.306;8.500;2023-05-10T05:20:04;42.82;39.46;56.05;;
43787;Laerm;29409;49.306;8.500;2023-05-10T05:21:14;43.36;39.70;53.20;;
43787;Laerm;29409;49.306;8.500;2023-05-10T05:22:15;48.02;39.81;62.14;;
43787;Laerm;29409;49.306;8.500;2023-05-10T05:23:16;46.90;39.78;60.03;;
43787;Laerm;29409;49.306;8.500;2023-05-10T05:24:16;49.86;39.46;65.23;;
43787;Laerm;29409;49.306;8.500;2023-05-10T05:25:16;42.61;38.67;46.66;;
43787;Laerm;29409;49.306;8.500;2023-05-10T05:26:17;42.53;38.81;45.69;;
43787;Laerm;29409;49.306;8.500;2023-05-10T05:27:17;42.74;39.34;47.46;;
43787;Laerm;29409;49.306;8.500;2023-05-10T05:28:18;44.56;40.79;54.72;;
43787;Laerm;29409;49.306;8.500;2023-05-10T05:29:19;44.20;39.21;62.79;;
43787;Laerm;29409;49.306;8.500;2023-05-10T05:30:19;42.87;39.46;47.57;;
43787;Laerm;29409;49.306;8.500;2023-05-10T05:31:20;59.59;40.43;79.40;;
43787;Laerm;29409;49.306;8.500;2023-05-10T05:32:20;41.96;39.34;46.07;;
43787;Laerm;29409;49.306;8.500;2023-05-10T05:33:21;42.19;38.05;46.78;;
43787;Laerm;29409;49.306;8.500;2023-05-10T05:34:21;43.18;38.95;48.87;;
43787;Laerm;29409;49.306;8.500;2023-05-10T05:35:22;42.42;39.34;51.41;;
43787;Laerm;29409;49.306;8.500;2023-05-10T05:36:22;43.16;39.46;53.43;;
43787;Laerm;29409;49.306;8.500;2023-05-10T05:37:22;42.92;39.11;58.36;;
43787;Laerm;29409;49.306;8.500;2023-05-10T05:38:24;43.12;39.08;52.61;;
43787;Laerm;29409;49.306;8.500;2023-05-10T05:39:24;43.10;38.81;51.41;;
43787;Laerm;29409;49.306;8.500;2023-05-10T05:40:24;48.47;39.58;65.57;;
43787;Laerm;29409;49.306;8.500;2023-05-10T05:41:25;44.79;39.68;53.58;;
43787;Laerm;29409;49.306;8.500;2023-05-10T05:42:26;44.77;40.13;56.19;;
43787;Laerm;29409;49.306;8.500;2023-05-10T05:43:26;51.19;40.43;66.26;;
43787;Laerm;29409;49.306;8.500;2023-05-10T05:44:26;49.95;41.22;71.27;;
43787;Laerm;29409;49.306;8.500;2023-05-10T05:45:28;44.66;40.33;55.48;;
43787;Laerm;29409;49.306;8.500;2023-05-10T05:46:29;43.32;39.21;50.12;;
43787;Laerm;29409;49.306;8.500;2023-05-10T05:47:29;45.80;39.08;54.76;;
43787;Laerm;29409;49.306;8.500;2023-05-10T05:48:29;43.78;39.08;53.40;;
43787;Laerm;29409;49.306;8.500;2023-05-10T05:49:30;43.25;38.81;53.98;;
43787;Laerm;29409;49.306;8.500;2023-05-10T05:50:30;42.32;39.08;50.60;;
43787;Laerm;29409;49.306;8.500;2023-05-10T05:51:30;43.76;40.62;50.26;;
43787;Laerm;29409;49.306;8.500;2023-05-10T05:52:31;42.35;38.81;50.64;;
43787;Laerm;29409;49.306;8.500;2023-05-10T05:53:31;42.63;38.21;49.41;;
43787;Laerm;29409;49.306;8.500;2023-05-10T05:54:31;45.55;40.33;63.53;;
43787;Laerm;29409;49.306;8.500;2023-05-10T05:55:32;45.30;39.58;55.31;;
43787;Laerm;29409;49.306;8.500;2023-05-10T05:56:32;45.19;39.92;57.74;;
43787;Laerm;29409;49.306;8.500;2023-05-10T05:57:32;47.43;40.03;59.36;;
43787;Laerm;29409;49.306;8.500;2023-05-10T05:58:33;47.04;40.13;66.17;;
43787;Laerm;29409;49.306;8.500;2023-05-10T05:59:33;48.06;41.68;61.22;;
43787;Laerm;29409;49.306;8.500;2023-05-10T06:00:33;45.76;39.81;55.78;;
43787;Laerm;29409;49.306;8.500;2023-05-10T06:01:33;46.81;39.21;58.11;;
43787;Laerm;29409;49.306;8.500;2023-05-10T06:02:34;48.55;39.70;60.47;;